Time;durP1;ratioP1;P1;durP2;ratioP2;P2;SDS_P1;SDS_P2;PMS_P1;PMS_P2;Temp;Humidity;BMP_temperature;BMP_pressure;BME280_temperature;BME280_humidity;BME280_pressure;Samples;Min_cycle;Max_cycle;Signal;HPM_P1;HPM_P2
2022/01/13 00:01:50;;;;;;;83.40;58.63;;;;;;;-145.93;100.00;59239.47;4918660;29;20126;-82
2022/01/13 00:04:16;;;;;;;82.68;57.60;;;;;;;-145.93;100.00;59239.47;4921620;29;20143;-82
2022/01/13 00:06:42;;;;;;;77.10;57.75;;;;;;;-145.93;100.00;59239.47;4919977;29;20008;-82
2022/01/13 00:09:08;;;;;;;77.03;58.30;;;;;;;-145.93;100.00;59239.47;4939862;29;20075;-81
2022/01/13 00:11:34;;;;;;;73.47;56.60;;;;;;;-145.93;100.00;59239.47;4935311;29;20109;-84
2022/01/13 00:17:08;;;;;;;80.43;58.80;;;;;;;-145.93;100.00;59239.47;4926259;29;20035;-82
2022/01/13 00:19:47;;;;;;;77.90;57.33;;;;;;;-145.93;100.00;59239.47;4937878;29;20092;-82
2022/01/13 00:22:19;;;;;;;73.07;56.50;;;;;;;-145.93;100.00;59239.47;4927186;29;20047;-83
2022/01/13 00:24:49;;;;;;;83.05;57.70;;;;;;;-145.93;100.00;59239.47;4927206;29;20031;-85
2022/01/13 00:27:16;;;;;;;100.55;64.05;;;;;;;-145.93;100.00;59239.47;4930761;29;20023;-85
2022/01/13 00:29:43;;;;;;;;;;;;;;;-145.93;100.00;59239.47;4931256;29;20067;-85
2022/01/13 00:32:10;;;;;;;80.63;57.25;;;;;;;-145.93;100.00;59239.47;4941424;29;19930;-85
2022/01/13 00:34:36;;;;;;;84.88;59.75;;;;;;;-145.93;100.00;59239.47;4924542;29;20072;-83
2022/01/13 00:37:02;;;;;;;83.85;58.15;;;;;;;-145.93;100.00;59239.47;4920897;29;20051;-84
2022/01/13 00:39:27;;;;;;;76.60;58.03;;;;;;;-145.93;100.00;59239.47;4947455;29;20031;-85
2022/01/13 00:41:53;;;;;;;80.20;58.60;;;;;;;-145.93;100.00;59239.47;4948539;29;20027;-84
2022/01/13 00:44:21;;;;;;;85.32;58.53;;;;;;;-145.93;100.00;59239.47;4918621;29;20048;-85
2022/01/13 00:46:58;;;;;;;80.40;56.90;;;;;;;-145.93;100.00;59239.47;4937065;29;20027;-86
2022/01/13 00:49:24;;;;;;;75.70;56.53;;;;;;;-145.93;100.00;59239.47;4926308;29;20032;-84
2022/01/13 00:51:52;;;;;;;90.33;59.70;;;;;;;-145.93;100.00;59239.47;4929357;29;20386;-83
2022/01/13 00:54:18;;;;;;;82.97;59.50;;;;;;;-145.93;100.00;59239.47;4943335;29;20117;-84
2022/01/13 00:56:43;;;;;;;82.27;57.50;;;;;;;-145.93;100.00;59239.47;4940585;29;20019;-86
2022/01/13 00:59:12;;;;;;;91.00;60.90;;;;;;;-145.93;100.00;59239.47;4941388;29;20039;-85
2022/01/13 01:01:44;;;;;;;84.57;59.10;;;;;;;-145.93;100.00;59239.47;4941452;29;20053;-84
2022/01/13 01:04:10;;;;;;;84.82;59.80;;;;;;;-145.93;100.00;59239.47;4945419;29;20044;-85
2022/01/13 01:06:35;;;;;;;73.00;56.53;;;;;;;-145.93;100.00;59239.47;4931951;29;20046;-83
2022/01/13 01:09:01;;;;;;;81.90;57.07;;;;;;;-145.93;100.00;59239.47;4947183;29;20054;-85
2022/01/13 01:11:26;;;;;;;74.50;56.90;;;;;;;-145.93;100.00;59239.47;4933629;29;20027;-84
2022/01/13 01:13:53;;;;;;;81.32;57.92;;;;;;;-145.93;100.00;59239.47;4925643;29;20095;-83
2022/01/13 01:16:19;;;;;;;89.35;61.40;;;;;;;-145.93;100.00;59239.47;4915040;29;20035;-84
2022/01/13 01:24:42;;;;;;;85.13;59.07;;;;;;;-145.93;100.00;59239.47;4969482;29;20038;-85
2022/01/13 01:29:14;;;;;;;88.32;58.47;;;;;;;-145.93;100.00;59239.47;4957385;29;20536;-85
2022/01/13 01:31:45;;;;;;;92.45;59.83;;;;;;;-145.93;100.00;59239.47;4928718;29;20047;-84
2022/01/13 01:34:39;;;;;;;89.57;59.28;;;;;;;-145.93;100.00;59239.47;4916470;29;20162;-85
2022/01/13 01:37:14;;;;;;;89.60;59.03;;;;;;;-145.93;100.00;59239.47;4921787;29;20027;-84
2022/01/13 01:39:40;;;;;;;87.47;61.28;;;;;;;-145.93;100.00;59239.47;4925456;29;20027;-85
2022/01/13 01:42:06;;;;;;;95.78;59.10;;;;;;;-145.93;100.00;59239.47;4943219;29;20034;-84
2022/01/13 01:44:36;;;;;;;83.97;58.67;;;;;;;-145.93;100.00;59239.47;4925901;29;20115;-86
2022/01/13 01:47:02;;;;;;;93.28;60.15;;;;;;;-145.93;100.00;59239.47;4915558;29;20062;-84
2022/01/13 01:49:30;;;;;;;86.60;60.80;;;;;;;-145.93;100.00;59239.47;4916524;29;20030;-84
2022/01/13 01:51:59;;;;;;;80.97;59.10;;;;;;;-145.93;100.00;59239.47;4931490;29;20032;-85
2022/01/13 01:54:25;;;;;;;84.35;58.42;;;;;;;-145.93;100.00;59239.47;4915367;29;20407;-84
2022/01/13 01:56:51;;;;;;;85.00;57.65;;;;;;;-145.93;100.00;59239.47;4909150;29;20167;-85
2022/01/13 01:59:19;;;;;;;100.63;62.60;;;;;;;-145.93;100.00;59239.47;4926213;29;20066;-84
2022/01/13 02:01:46;;;;;;;83.03;60.78;;;;;;;-145.93;100.00;59239.47;4916172;29;20451;-84
2022/01/13 02:04:11;;;;;;;95.30;61.20;;;;;;;-145.93;100.00;59239.47;4919620;29;20397;-84
2022/01/13 02:06:37;;;;;;;100.10;62.13;;;;;;;-145.93;100.00;59239.47;4918079;29;20048;-85
2022/01/13 02:09:05;;;;;;;96.90;62.30;;;;;;;-145.93;100.00;59239.47;4947812;29;20028;-84
2022/01/13 02:11:36;;;;;;;97.10;60.92;;;;;;;-145.93;100.00;59239.47;4948251;29;20047;-84
2022/01/13 02:14:10;;;;;;;96.68;61.00;;;;;;;-145.93;100.00;59239.47;4936241;29;20027;-83
2022/01/13 02:19:01;;;;;;;105.37;64.67;;;;;;;-145.93;100.00;59239.47;4965367;29;20190;-82
2022/01/13 02:21:27;;;;;;;99.82;62.72;;;;;;;-145.93;100.00;59239.47;4937757;29;20023;-84
2022/01/13 02:23:54;;;;;;;102.47;62.53;;;;;;;-145.93;100.00;59239.47;4949273;29;20019;-84
2022/01/13 02:26:21;;;;;;;106.53;62.55;;;;;;;-145.93;100.00;59239.47;4923496;29;20082;-85
2022/01/13 02:28:46;;;;;;;98.28;62.80;;;;;;;-145.93;100.00;59239.47;4929783;29;20545;-84
2022/01/13 02:31:12;;;;;;;98.20;62.33;;;;;;;-145.93;100.00;59239.47;4941924;29;20106;-85
2022/01/13 02:33:38;;;;;;;101.20;61.67;;;;;;;-145.93;100.00;59239.47;4925431;29;20489;-87
2022/01/13 02:36:04;;;;;;;87.47;60.50;;;;;;;-145.93;100.00;59239.47;4922294;29;20125;-86
2022/01/13 02:38:30;;;;;;;94.53;60.42;;;;;;;-145.93;100.00;59239.47;4921280;29;20036;-85
2022/01/13 02:40:56;;;;;;;97.80;60.80;;;;;;;-145.93;100.00;59239.47;4941521;29;20096;-85
2022/01/13 02:43:22;;;;;;;88.40;59.50;;;;;;;-145.93;100.00;59239.47;4923919;29;20034;-85
2022/01/13 02:46:05;;;;;;;97.07;61.38;;;;;;;-145.93;100.00;59239.47;4892381;29;20052;-86
2022/01/13 02:48:31;;;;;;;99.78;61.63;;;;;;;-145.93;100.00;59239.47;4921935;29;20413;-85
2022/01/13 02:50:58;;;;;;;85.55;59.90;;;;;;;-145.93;100.00;59239.47;4935775;29;20023;-83
2022/01/13 02:53:23;;;;;;;90.97;60.40;;;;;;;-145.93;100.00;59239.47;4919361;29;20023;-84
2022/01/13 02:55:50;;;;;;;85.70;58.83;;;;;;;-145.93;100.00;59239.47;4929539;29;20110;-85
2022/01/13 02:58:16;;;;;;;99.72;62.47;;;;;;;-145.93;100.00;59239.47;4939636;29;20030;-85
2022/01/13 03:00:43;;;;;;;90.80;59.92;;;;;;;-145.93;100.00;59239.47;4927760;29;20043;-85
2022/01/13 03:05:49;;;;;;;84.10;58.03;;;;;;;-145.93;100.00;59239.47;4978481;28;20043;-90
2022/01/13 03:08:15;;;;;;;88.70;59.97;;;;;;;-145.93;100.00;59239.47;4952130;28;20034;-90
2022/01/13 03:10:40;;;;;;;91.15;60.33;;;;;;;-145.93;100.00;59239.47;4942777;29;20015;-89
2022/01/13 03:13:07;;;;;;;83.77;59.33;;;;;;;-145.93;100.00;59239.47;4937211;29;20086;-89
2022/01/13 03:15:38;;;;;;;;;;;;;;;-145.93;100.00;59239.47;4913778;29;20027;-89
2022/01/13 03:18:04;;;;;;;85.30;60.00;;;;;;;-145.93;100.00;59239.47;4926789;29;19957;-88
2022/01/13 03:20:30;;;;;;;83.27;58.87;;;;;;;-145.93;100.00;59239.47;4911839;29;20044;-89
2022/01/13 03:22:55;;;;;;;82.45;59.00;;;;;;;-145.93;100.00;59239.47;4912160;29;20050;-88
2022/01/13 03:25:22;;;;;;;85.72;59.95;;;;;;;-145.93;100.00;59239.47;4911690;29;20090;-89
2022/01/13 03:30:38;;;;;;;83.05;58.13;;;;;;;-145.93;100.00;59239.47;4920407;29;20048;-90
2022/01/13 03:33:06;;;;;;;86.15;58.67;;;;;;;-145.93;100.00;59239.47;4947960;29;20027;-89
2022/01/13 03:35:33;;;;;;;84.60;59.33;;;;;;;-145.93;100.00;59239.47;4932005;29;20023;-90
2022/01/13 03:38:02;;;;;;;85.00;58.88;;;;;;;-145.93;100.00;59239.47;4926282;29;20023;-88
2022/01/13 03:40:31;;;;;;;83.30;58.70;;;;;;;-145.93;100.00;59239.47;4942497;29;20007;-87
2022/01/13 03:42:57;;;;;;;81.10;58.00;;;;;;;-145.93;100.00;59239.47;4934622;29;20446;-88
2022/01/13 03:45:23;;;;;;;74.07;56.17;;;;;;;-145.93;100.00;59239.47;4944242;29;20087;-90
2022/01/13 03:47:48;;;;;;;77.73;57.37;;;;;;;-145.93;100.00;59239.47;4944566;29;20024;-90
2022/01/13 03:50:14;;;;;;;83.13;59.47;;;;;;;-145.93;100.00;59239.47;4943635;29;20012;-91
2022/01/13 03:53:31;;;;;;;87.50;60.30;;;;;;;-145.93;100.00;59239.47;4927241;28;20047;-91
2022/01/13 03:56:34;;;;;;;81.13;58.42;;;;;;;-145.93;100.00;59239.47;4888052;29;20027;-90
2022/01/13 03:59:22;;;;;;;77.15;58.00;;;;;;;-145.93;100.00;59239.47;4933603;28;20068;-92
2022/01/13 04:02:29;;;;;;;82.68;61.05;;;;;;;-145.93;100.00;59239.47;4960305;29;20035;-89
2022/01/13 04:04:54;;;;;;;84.30;58.53;;;;;;;-145.93;100.00;59239.47;4961478;29;20028;-91
2022/01/13 04:07:25;;;;;;;76.77;57.70;;;;;;;-145.93;100.00;59239.47;4947085;28;20015;-91
2022/01/13 04:09:50;;;;;;;81.30;58.63;;;;;;;-145.93;100.00;59239.47;4963145;28;20019;-92
2022/01/13 04:12:18;;;;;;;86.83;60.07;;;;;;;-145.93;100.00;59239.47;4955344;29;20031;-90
2022/01/13 04:14:49;;;;;;;79.88;58.45;;;;;;;-145.93;100.00;59239.47;4924205;29;20024;-91
2022/01/13 04:17:20;;;;;;;82.22;59.40;;;;;;;-145.93;100.00;59239.47;4936641;29;20027;-89
2022/01/13 04:19:46;;;;;;;80.40;57.63;;;;;;;-145.93;100.00;59239.47;4956151;29;20055;-89
2022/01/13 04:22:12;;;;;;;85.30;59.10;;;;;;;-145.93;100.00;59239.47;4937407;29;20433;-90
2022/01/13 04:24:39;;;;;;;80.28;57.38;;;;;;;-145.93;100.00;59239.47;4923814;29;20032;-89
2022/01/13 04:27:10;;;;;;;78.97;57.63;;;;;;;-145.93;100.00;59239.47;4928390;29;20035;-89
2022/01/13 04:29:45;;;;;;;73.38;58.40;;;;;;;-145.93;100.00;59239.47;4919589;29;20024;-90
2022/01/13 04:32:10;;;;;;;80.85;59.35;;;;;;;-145.93;100.00;59239.47;4922762;29;20035;-90
2022/01/13 04:34:35;;;;;;;74.03;58.33;;;;;;;-145.93;100.00;59239.47;4922088;29;20528;-90
2022/01/13 04:37:01;;;;;;;78.77;58.83;;;;;;;-145.93;100.00;59239.47;4915922;29;20031;-90
2022/01/13 04:39:32;;;;;;;72.43;56.17;;;;;;;-145.93;100.00;59239.47;4917761;29;20027;-89
2022/01/13 04:41:58;;;;;;;69.63;58.08;;;;;;;-145.93;100.00;59239.47;4917566;29;20035;-90
2022/01/13 04:44:25;;;;;;;88.07;60.17;;;;;;;-145.93;100.00;59239.47;4926455;29;20027;-89
2022/01/13 04:46:54;;;;;;;83.53;57.72;;;;;;;-145.93;100.00;59239.47;4944457;29;20057;-90
2022/01/13 04:49:20;;;;;;;82.00;58.92;;;;;;;-145.93;100.00;59239.47;4937566;29;20023;-92
2022/01/13 04:51:47;;;;;;;;;;;;;;;-145.93;100.00;59239.47;4914806;29;20047;-89
2022/01/13 04:54:13;;;;;;;78.50;58.30;;;;;;;-145.93;100.00;59239.47;4937051;29;19910;-90
2022/01/13 04:56:43;;;;;;;81.47;58.30;;;;;;;-145.93;100.00;59239.47;4920848;29;20066;-89
2022/01/13 04:59:09;;;;;;;75.43;59.83;;;;;;;-145.93;100.00;59239.47;4930200;29;20118;-89
2022/01/13 05:01:38;;;;;;;73.93;57.42;;;;;;;-145.93;100.00;59239.47;4946345;29;20109;-89
2022/01/13 05:04:05;;;;;;;71.93;57.28;;;;;;;-145.93;100.00;59239.47;4948299;29;20035;-91
2022/01/13 05:06:31;;;;;;;77.95;58.30;;;;;;;-145.93;100.00;59239.47;4934999;29;20032;-89
2022/01/13 05:08:57;;;;;;;79.32;58.10;;;;;;;-145.93;100.00;59239.47;4929639;29;20027;-89
2022/01/13 05:11:22;;;;;;;73.50;58.90;;;;;;;-145.93;100.00;59239.47;4939818;29;20051;-89
2022/01/13 05:13:48;;;;;;;69.25;56.85;;;;;;;-145.93;100.00;59239.47;4950109;29;20027;-90
2022/01/13 05:16:29;;;;;;;79.32;57.58;;;;;;;-145.93;100.00;59239.47;4929182;29;20027;-89
2022/01/13 05:19:11;;;;;;;73.18;57.72;;;;;;;-145.93;100.00;59239.47;4926896;29;20067;-89
2022/01/13 05:22:15;;;;;;;86.75;58.20;;;;;;;-145.93;100.00;59239.47;4946960;29;20470;-89
2022/01/13 05:24:23;;;;;;;81.15;59.80;;;;;;;-145.93;100.00;59239.47;4953249;29;20091;-89
2022/01/13 05:26:49;;;;;;;;;;;;;;;-145.93;100.00;59239.47;4926181;29;20034;-90
2022/01/13 05:29:20;;;;;;;78.57;57.30;;;;;;;-145.93;100.00;59239.47;4924506;29;19914;-90
2022/01/13 05:31:49;;;;;;;76.82;57.50;;;;;;;-145.93;100.00;59239.47;4934032;29;20669;-90
2022/01/13 05:34:18;;;;;;;89.95;60.42;;;;;;;-145.93;100.00;59239.47;4935601;29;20130;-89
2022/01/13 05:36:43;;;;;;;87.00;59.70;;;;;;;-145.93;100.00;59239.47;4933794;28;20091;-90
2022/01/13 05:39:10;;;;;;;87.65;60.15;;;;;;;-145.93;100.00;59239.47;4935417;28;20027;-90
2022/01/13 05:41:36;;;;;;;83.95;59.75;;;;;;;-145.93;100.00;59239.47;4952929;29;20094;-89
2022/01/13 05:44:01;;;;;;;82.93;58.78;;;;;;;-145.93;100.00;59239.47;4918358;29;20059;-89
2022/01/13 05:46:27;;;;;;;81.68;57.53;;;;;;;-145.93;100.00;59239.47;4958252;29;20066;-90
2022/01/13 05:48:55;;;;;;;81.43;58.23;;;;;;;-145.93;100.00;59239.47;4940459;29;20039;-88
2022/01/13 05:51:21;;;;;;;84.13;61.17;;;;;;;-145.93;100.00;59239.47;4920912;29;20024;-89
2022/01/13 05:53:46;;;;;;;87.60;57.35;;;;;;;-145.93;100.00;59239.47;4945214;29;20035;-88
2022/01/13 05:56:13;;;;;;;76.03;59.30;;;;;;;-145.93;100.00;59239.47;4913349;29;20039;-89
2022/01/13 05:58:38;;;;;;;84.60;59.22;;;;;;;-145.93;100.00;59239.47;4919420;29;20282;-89
2022/01/13 06:01:04;;;;;;;81.77;59.37;;;;;;;-145.93;100.00;59239.47;4920909;29;20028;-89
2022/01/13 06:03:30;;;;;;;82.43;58.73;;;;;;;-145.93;100.00;59239.47;4929571;29;20027;-90
2022/01/13 06:05:56;;;;;;;78.55;58.97;;;;;;;-145.93;100.00;59239.47;4921104;29;20034;-89
2022/01/13 06:08:21;;;;;;;77.60;59.38;;;;;;;-145.93;100.00;59239.47;4933063;29;20138;-89
2022/01/13 06:10:47;;;;;;;80.97;58.57;;;;;;;-145.93;100.00;59239.47;4961518;28;20027;-90
2022/01/13 06:13:13;;;;;;;72.72;58.78;;;;;;;-145.93;100.00;59239.47;4949173;29;20031;-90
2022/01/13 06:15:42;;;;;;;78.25;58.05;;;;;;;-145.93;100.00;59239.47;4944942;29;20032;-90
2022/01/13 06:18:13;;;;;;;85.53;58.15;;;;;;;-145.93;100.00;59239.47;4916107;29;20027;-90
2022/01/13 06:20:41;;;;;;;79.45;60.28;;;;;;;-145.93;100.00;59239.47;4932457;29;20023;-89
2022/01/13 06:23:07;;;;;;;78.97;58.30;;;;;;;-145.93;100.00;59239.47;4911877;29;20076;-89
2022/01/13 06:25:37;;;;;;;75.97;58.33;;;;;;;-145.93;100.00;59239.47;4932003;29;20036;-89
2022/01/13 06:28:03;;;;;;;77.13;58.55;;;;;;;-145.93;100.00;59239.47;4948553;29;20027;-89
2022/01/13 06:30:30;;;;;;;70.82;57.60;;;;;;;-145.93;100.00;59239.47;4923288;29;20031;-89
2022/01/13 06:32:56;;;;;;;83.93;57.85;;;;;;;-145.93;100.00;59239.47;4929687;29;20041;-89
2022/01/13 06:35:25;;;;;;;84.88;58.92;;;;;;;-145.93;100.00;59239.47;4924123;29;20027;-88
2022/01/13 06:37:50;;;;;;;81.82;60.22;;;;;;;-145.93;100.00;59239.47;4935628;29;20027;-90
2022/01/13 06:40:16;;;;;;;77.00;58.50;;;;;;;-145.93;100.00;59239.47;4959067;28;20030;-91
2022/01/13 07:00:42;;;;;;;86.20;59.70;;;;;;;-145.93;100.00;59239.47;4917328;29;20327;-92
2022/01/13 07:03:08;;;;;;;84.25;59.03;;;;;;;-145.93;100.00;59239.47;4916605;29;20046;-90
2022/01/13 07:05:43;;;;;;;;;;;;;;;-145.93;100.00;59239.47;4892000;29;20059;-90
2022/01/13 07:08:14;;;;;;;82.25;58.92;;;;;;;-145.93;100.00;59239.47;4899804;29;20000;-90
2022/01/13 07:10:45;;;;;;;81.13;59.33;;;;;;;-145.93;100.00;59239.47;4889207;29;20028;-90
2022/01/13 07:13:11;;;;;;;75.53;59.65;;;;;;;-145.93;100.00;59239.47;4907074;29;20028;-88
2022/01/13 07:15:37;;;;;;;76.13;58.88;;;;;;;-145.93;100.00;59239.47;4890800;29;20024;-90
2022/01/13 07:18:05;;;;;;;74.22;58.72;;;;;;;-145.93;100.00;59239.47;4900885;29;20112;-90
2022/01/13 07:20:31;;;;;;;82.32;60.42;;;;;;;-145.93;100.00;59239.47;4945518;23;20165;-89
2022/01/13 07:22:59;;;;;;;78.97;60.57;;;;;;;-145.93;100.00;59239.47;4936629;29;20038;-88
2022/01/13 07:25:25;;;;;;;74.22;59.15;;;;;;;-145.93;100.00;59239.47;4914649;29;20314;-89
2022/01/13 07:27:53;;;;;;;70.95;58.03;;;;;;;-145.93;100.00;59239.47;4929479;29;20123;-89
2022/01/13 07:30:18;;;;;;;74.90;60.03;;;;;;;-145.93;100.00;59239.47;4926539;29;20035;-90
2022/01/13 07:32:44;;;;;;;80.83;59.23;;;;;;;-145.93;100.00;59239.47;4921575;29;20470;-89
2022/01/13 07:35:13;;;;;;;79.63;60.17;;;;;;;-145.93;100.00;59239.47;4911195;29;20043;-91
2022/01/13 07:37:39;;;;;;;89.78;61.67;;;;;;;-145.93;100.00;59239.47;4916249;29;20063;-90
2022/01/13 07:40:05;;;;;;;75.03;59.25;;;;;;;-145.93;100.00;59239.47;4918989;29;20023;-89
2022/01/13 07:42:31;;;;;;;;;;;;;;;-145.93;100.00;59239.47;4925689;29;20052;-91
2022/01/13 07:44:57;;;;;;;73.72;59.67;;;;;;;-145.93;100.00;59239.47;4917778;29;19911;-89
2022/01/13 07:47:22;;;;;;;95.87;64.10;;;;;;;-145.93;100.00;59239.47;4921007;29;20025;-90
2022/01/13 07:49:50;;;;;;;79.07;58.37;;;;;;;-145.93;100.00;59239.47;4917515;29;20056;-90
2022/01/13 07:52:15;;;;;;;86.32;61.95;;;;;;;-145.93;100.00;59239.47;4911816;29;20026;-89
2022/01/13 07:54:41;;;;;;;86.93;59.27;;;;;;;-145.93;100.00;59239.47;4928529;29;20024;-90
2022/01/13 07:57:06;;;;;;;78.00;60.50;;;;;;;-145.93;100.00;59239.47;4938773;28;20127;-93
2022/01/13 07:59:32;;;;;;;77.63;60.43;;;;;;;-145.93;100.00;59239.47;4930879;28;20022;-91
2022/01/13 08:02:03;;;;;;;83.73;61.57;;;;;;;-145.93;100.00;59239.47;4930388;29;20353;-92
2022/01/13 08:04:31;;;;;;;80.22;59.80;;;;;;;-145.93;100.00;59239.47;4929050;29;20564;-91
2022/01/13 08:06:57;;;;;;;80.30;60.45;;;;;;;-145.93;100.00;59239.47;4929138;29;20043;-92
2022/01/13 08:09:26;;;;;;;77.13;60.17;;;;;;;-145.93;100.00;59239.47;4922014;29;20028;-89
2022/01/13 08:11:51;;;;;;;75.10;57.40;;;;;;;-145.93;100.00;59239.47;4924377;29;20043;-91
2022/01/13 08:14:31;;;;;;;83.32;61.20;;;;;;;-145.93;100.00;59239.47;4923278;29;20573;-89
2022/01/13 08:17:02;;;;;;;79.50;58.60;;;;;;;-145.93;100.00;59239.47;4917669;29;20035;-90
2022/01/13 08:19:46;;;;;;;77.53;59.85;;;;;;;-145.93;100.00;59239.47;4924579;29;20087;-91
2022/01/13 08:22:13;;;;;;;79.90;60.17;;;;;;;-145.93;100.00;59239.47;4921033;29;20519;-91
2022/01/13 08:24:38;;;;;;;80.47;58.63;;;;;;;-145.93;100.00;59239.47;4915327;29;20036;-90
2022/01/13 08:27:14;;;;;;;78.20;58.63;;;;;;;-145.93;100.00;59239.47;4923595;29;20034;-89
2022/01/13 08:29:42;;;;;;;80.80;62.47;;;;;;;-145.93;100.00;59239.47;4922166;29;20059;-90
2022/01/13 08:32:08;;;;;;;81.35;59.63;;;;;;;-145.93;100.00;59239.47;4921252;29;20023;-91
2022/01/13 08:34:36;;;;;;;73.73;60.30;;;;;;;-145.93;100.00;59239.47;4920732;29;20063;-90
2022/01/13 08:37:02;;;;;;;84.03;60.70;;;;;;;-145.93;100.00;59239.47;4926667;29;20019;-91
2022/01/13 08:39:28;;;;;;;81.30;60.15;;;;;;;-145.93;100.00;59239.47;4919099;29;20039;-91
2022/01/13 08:41:56;;;;;;;87.70;60.83;;;;;;;-145.93;100.00;59239.47;4926948;29;20481;-91
2022/01/13 08:44:22;;;;;;;86.65;62.67;;;;;;;-145.93;100.00;59239.47;4939038;29;20031;-90
2022/01/13 08:46:48;;;;;;;83.80;61.85;;;;;;;-145.93;100.00;59239.47;4915607;29;20064;-90
2022/01/13 08:49:13;;;;;;;85.28;62.97;;;;;;;-145.93;100.00;59239.47;4898536;29;20103;-84
2022/01/13 08:52:10;;;;;;;92.90;61.77;;;;;;;-145.93;100.00;59239.47;4931016;29;20035;-90
2022/01/13 09:04:57;;;;;;;85.07;60.50;;;;;;;-145.93;100.00;59239.47;5416598;23;20062;-84
2022/01/13 09:07:32;;;;;;;86.40;60.97;;;;;;;-145.93;100.00;59239.47;4962511;28;20079;-85
2022/01/13 09:09:58;;;;;;;87.35;62.10;;;;;;;-145.93;100.00;59239.47;4959514;28;20042;-85
2022/01/13 09:12:23;;;;;;;83.10;61.17;;;;;;;-145.93;100.00;59239.47;4961449;28;20027;-84
2022/01/13 09:14:58;;;;;;;87.07;61.50;;;;;;;-145.93;100.00;59239.47;4966132;28;20058;-85
2022/01/13 09:17:24;;;;;;;81.75;59.90;;;;;;;-145.93;100.00;59239.47;4971587;28;20027;-85
2022/01/13 09:19:51;;;;;;;72.30;58.97;;;;;;;-145.93;100.00;59239.47;4970959;28;20036;-84
2022/01/13 09:22:17;;;;;;;81.13;59.45;;;;;;;-145.93;100.00;59239.47;4962268;28;20027;-85
2022/01/13 09:24:42;;;;;;;81.93;60.92;;;;;;;-145.93;100.00;59239.47;4975256;28;20095;-86
2022/01/13 09:27:08;;;;;;;78.40;59.43;;;;;;;-145.93;100.00;59239.47;4973996;28;20034;-85
2022/01/13 09:29:33;;;;;;;82.00;60.77;;;;;;;-145.93;100.00;59239.47;4971456;28;20049;-86
2022/01/13 09:31:59;;;;;;;78.70;58.40;;;;;;;-145.93;100.00;59239.47;4960891;28;20058;-85
2022/01/13 09:34:27;;;;;;;96.60;64.17;;;;;;;-145.93;100.00;59239.47;4968973;28;20081;-85
2022/01/13 09:36:53;;;;;;;83.63;61.25;;;;;;;-145.93;100.00;59239.47;4961646;28;20023;-86
2022/01/13 09:39:20;;;;;;;82.03;58.70;;;;;;;-145.93;100.00;59239.47;4978074;28;20120;-85
2022/01/13 09:41:46;;;;;;;78.47;59.55;;;;;;;-145.93;100.00;59239.47;4959830;28;20030;-85
2022/01/13 09:44:15;;;;;;;85.78;60.83;;;;;;;-145.93;100.00;59239.47;4964819;28;20034;-85
2022/01/13 09:46:41;;;;;;;76.45;59.90;;;;;;;-145.93;100.00;59239.47;4976769;28;20065;-85
2022/01/13 09:49:08;;;;;;;;;;;;;;;-145.93;100.00;59239.47;4959876;28;20027;-85
2022/01/13 09:51:35;;;;;;;75.70;58.55;;;;;;;-145.93;100.00;59239.47;4971525;28;19909;-87
2022/01/13 09:54:01;;;;;;;80.60;60.42;;;;;;;-145.93;100.00;59239.47;4965177;28;20022;-85
2022/01/13 09:56:29;;;;;;;82.13;58.20;;;;;;;-145.93;100.00;59239.47;4955332;28;20035;-84
2022/01/13 09:58:55;;;;;;;69.75;57.20;;;;;;;-145.93;100.00;59239.47;4940560;28;20027;-86
2022/01/13 10:01:20;;;;;;;75.17;59.23;;;;;;;-145.93;100.00;59239.47;4963595;28;20053;-85
2022/01/13 10:03:46;;;;;;;83.70;60.92;;;;;;;-145.93;100.00;59239.47;4968651;28;20047;-85
2022/01/13 10:06:17;;;;;;;79.13;58.73;;;;;;;-145.93;100.00;59239.47;4955284;28;20027;-86
2022/01/13 10:08:47;;;;;;;80.50;58.97;;;;;;;-145.93;100.00;59239.47;4969251;28;20022;-85
2022/01/13 10:11:27;;;;;;;76.85;57.88;;;;;;;-145.93;100.00;59239.47;4955995;28;20014;-85
2022/01/13 10:14:03;;;;;;;77.15;59.67;;;;;;;-145.93;100.00;59239.47;4991196;28;20503;-84
2022/01/13 10:16:29;;;;;;;66.03;56.15;;;;;;;-145.93;100.00;59239.47;4975408;28;20049;-86
2022/01/13 10:18:54;;;;;;;80.50;59.27;;;;;;;-145.93;100.00;59239.47;4977517;28;20041;-84
2022/01/13 10:21:20;;;;;;;68.67;56.40;;;;;;;-145.93;100.00;59239.47;4966871;28;20023;-85
2022/01/13 10:24:12;;;;;;;67.78;56.10;;;;;;;-145.93;100.00;59239.47;4972117;28;20267;-84
2022/01/13 10:26:39;;;;;;;70.57;58.35;;;;;;;-145.93;100.00;59239.47;4964611;28;20140;-84
2022/01/13 10:29:07;;;;;;;79.82;58.17;;;;;;;-145.93;100.00;59239.47;4982963;28;20011;-85
2022/01/13 10:31:43;;;;;;;71.22;57.30;;;;;;;-145.93;100.00;59239.47;4967778;28;20038;-85
2022/01/13 10:34:25;;;;;;;71.00;56.58;;;;;;;-145.93;100.00;59239.47;4991444;28;20021;-84
2022/01/13 10:37:13;;;;;;;65.22;55.63;;;;;;;-145.93;100.00;59239.47;4981147;28;20042;-85
2022/01/13 10:39:52;;;;;;;73.80;56.97;;;;;;;-145.93;100.00;59239.47;4983512;28;20033;-85
2022/01/13 10:45:17;;;;;;;69.13;56.25;;;;;;;-145.93;100.00;59239.47;5009183;28;20043;-86
2022/01/13 10:48:05;;;;;;;68.82;55.60;;;;;;;-145.93;100.00;59239.47;4965999;29;20027;-85
2022/01/13 10:50:41;;;;;;;;;;;;;;;-145.93;100.00;59239.47;4953869;28;20035;-86
2022/01/13 10:53:15;;;;;;;71.88;57.85;;;;;;;-145.93;100.00;59239.47;4967442;28;19917;-85
2022/01/13 10:55:45;;;;;;;72.28;56.67;;;;;;;-145.93;100.00;59239.47;4957429;28;20090;-86
2022/01/13 10:58:14;;;;;;;71.45;57.13;;;;;;;-145.93;100.00;59239.47;4973510;28;20064;-86
2022/01/13 11:00:40;;;;;;;74.40;57.90;;;;;;;-145.93;100.00;59239.47;4966261;28;20037;-87
2022/01/13 11:03:14;;;;;;;70.97;57.73;;;;;;;-145.93;100.00;59239.47;4957113;28;20031;-85
2022/01/13 11:05:51;;;;;;;77.45;58.92;;;;;;;-145.93;100.00;59239.47;4980736;28;20022;-86
2022/01/13 11:08:25;;;;;;;75.93;57.30;;;;;;;-145.93;100.00;59239.47;4970464;28;20018;-85
2022/01/13 11:10:52;;;;;;;78.53;58.50;;;;;;;-145.93;100.00;59239.47;4980689;28;20022;-86
2022/01/13 11:13:22;;;;;;;71.53;57.97;;;;;;;-145.93;100.00;59239.47;4982511;28;20042;-85
2022/01/13 11:15:56;;;;;;;71.45;57.65;;;;;;;-145.93;100.00;59239.47;4971263;28;20035;-86
2022/01/13 11:18:33;;;;;;;65.35;56.58;;;;;;;-145.93;100.00;59239.47;4963997;29;20040;-86
2022/01/13 11:21:01;;;;;;;73.90;57.92;;;;;;;-145.93;100.00;59239.47;4995835;28;20058;-85
2022/01/13 11:23:27;;;;;;;77.88;58.25;;;;;;;-145.93;100.00;59239.47;4966402;28;20026;-86
2022/01/13 11:25:55;;;;;;;80.63;58.23;;;;;;;-145.93;100.00;59239.47;4972830;28;20042;-87
2022/01/13 11:28:24;;;;;;;72.03;57.22;;;;;;;-145.93;100.00;59239.47;4949630;29;20370;-86
2022/01/13 11:30:50;;;;;;;72.63;57.70;;;;;;;-145.93;100.00;59239.47;4953541;28;20082;-85
2022/01/13 11:33:17;;;;;;;81.78;58.30;;;;;;;-145.93;100.00;59239.47;4960597;28;20054;-85
2022/01/13 11:35:45;;;;;;;72.55;56.83;;;;;;;-145.93;100.00;59239.47;4973678;28;20094;-84
2022/01/13 11:38:12;;;;;;;67.40;57.88;;;;;;;-145.93;100.00;59239.47;4967482;28;20015;-85
2022/01/13 11:40:45;;;;;;;80.75;58.40;;;;;;;-145.93;100.00;59239.47;4970646;28;20042;-85
2022/01/13 11:43:23;;;;;;;73.32;58.00;;;;;;;-145.93;100.00;59239.47;4955301;28;20027;-86
2022/01/13 11:45:48;;;;;;;71.38;58.53;;;;;;;-145.93;100.00;59239.47;4979551;28;20094;-85
2022/01/13 11:48:22;;;;;;;75.50;58.63;;;;;;;-145.93;100.00;59239.47;4963077;28;20046;-85
2022/01/13 11:50:55;;;;;;;71.22;56.42;;;;;;;-145.93;100.00;59239.47;4961398;28;20045;-85
2022/01/13 11:53:32;;;;;;;73.60;58.67;;;;;;;-145.93;100.00;59239.47;4953344;28;20011;-84
2022/01/13 11:56:03;;;;;;;73.10;58.35;;;;;;;-145.93;100.00;59239.47;4958420;28;20033;-85